This is the latest recevied weather packets stored in our database for station/object N5ZP. If no packets are shown the sender has not sent any weather packets the latest 10 day(s).
| Time | Temp. | Humidity | Pressure | Rain* | Wind** | Luminosity | Snow |
|---|---|---|---|---|---|---|---|
| 1778179631 | 22.22° C | 49% | 1014.7 hPa | 0 mm | - | 803 W/m² | - |
| 1778179329 | 22.22° C | 48% | 1014.5 hPa | 0 mm | - | 797 W/m² | - |
| 1778179025 | 22.22° C | 50% | 1014.6 hPa | 0 mm | - | 771 W/m² | - |
| 1778178722 | 22.22° C | 49% | 1014.6 hPa | 0 mm | - | 793 W/m² | - |
| 1778178420 | 22.22° C | 51% | 1014.8 hPa | 0 mm | - | 795 W/m² | - |
| 1778178109 | 22.22° C | 50% | 1014.8 hPa | 0 mm | - | 800 W/m² | - |
| 1778177806 | 21.67° C | 52% | 1014.7 hPa | 0 mm | - | 802 W/m² | - |
| 1778177502 | 21.67° C | 52% | 1014.8 hPa | 0 mm | - | 811 W/m² | - |
| 1778177198 | 21.11° C | 56% | 1015.1 hPa | 0 mm | - | 820 W/m² | - |
| 1778176896 | 21.67° C | 50% | 1015.1 hPa | 0 mm | - | 809 W/m² | - |
| 1778176591 | 21.67° C | 53% | 1015.3 hPa | 0 mm | - | 809 W/m² | - |
| 1778176289 | 21.11° C | 51% | 1015.2 hPa | 0 mm | - | 807 W/m² | - |
| 1778175986 | 21.11° C | 53% | 1015.3 hPa | 0 mm | - | 801 W/m² | - |
| 1778175684 | 20.56° C | 54% | 1015.6 hPa | 0 mm | - | 781 W/m² | - |
| 1778175381 | 20.56° C | 54% | 1015.6 hPa | 0 mm | - | 781 W/m² | - |
| 1778175078 | 20.56° C | 51% | 1016 hPa | 0 mm | - | 786 W/m² | - |
| 1778174774 | 20.56° C | 54% | 1016.1 hPa | 0 mm | - | 782 W/m² | - |
| 1778174472 | 20.56° C | 50% | 1015.7 hPa | 0 mm | - | 740 W/m² | - |
| 1778174166 | 20.56° C | 51% | 1016.1 hPa | 0 mm | - | 794 W/m² | - |
| 1778173864 | 20.56° C | 56% | 1016.5 hPa | 0 mm | - | 769 W/m² | - |
| 1778173561 | 21.67° C | 53% | 1016.3 hPa | 0 mm | - | 764 W/m² | - |
| 1778173258 | 21.67° C | 54% | 1016.7 hPa | 0 mm | - | 757 W/m² | - |
| 1778172953 | 20.56° C | 54% | 1016.8 hPa | 0 mm | - | 755 W/m² | - |
| 1778172650 | 20° C | 54% | 1016.6 hPa | 0 mm | - | 751 W/m² | - |
| 1778172346 | 20° C | 55% | 1016.8 hPa | 0 mm | - | 710 W/m² | - |
* Rain latest hour (hover to see other rain measurements)
** Current wind speed in m/s (hover to see current wind gust speed)